Time;durP1;ratioP1;P1;durP2;ratioP2;P2;SDS_P1;SDS_P2;PMS_P1;PMS_P2;Temp;Humidity;BMP_temperature;BMP_pressure;BME280_temperature;BME280_humidity;BME280_pressure;Samples;Min_cycle;Max_cycle;Signal;HPM_P1;HPM_P2
2022/03/06 00:00:21;;;;;;;61.20;28.70;;;;;0.30;101660.00;;;;10279263;28;20339;-79
2022/03/06 00:05:22;;;;;;;63.57;30.23;;;;;0.10;101659.00;;;;10309156;28;20282;-78
2022/03/06 00:10:26;;;;;;;65.73;29.50;;;;;0.10;101669.00;;;;10277688;28;20239;-79
2022/03/06 00:15:28;;;;;;;60.13;29.30;;;;;0.00;101666.00;;;;10292364;28;20203;-78
2022/03/06 00:20:30;;;;;;;58.93;28.87;;;;;0.00;101663.00;;;;10293267;28;20199;-78
2022/03/06 00:25:32;;;;;;;60.60;29.07;;;;;-0.10;101663.00;;;;10260914;28;20216;-79
2022/03/06 00:30:34;;;;;;;65.70;30.80;;;;;-0.20;101675.00;;;;10276380;28;20222;-78
2022/03/06 00:35:36;;;;;;;58.37;28.40;;;;;-0.30;101681.00;;;;10311478;28;20202;-79
2022/03/06 00:40:41;;;;;;;63.30;29.23;;;;;-0.40;101679.00;;;;10349204;28;20242;-79
2022/03/06 00:45:43;;;;;;;61.13;28.77;;;;;-0.50;101676.00;;;;10331559;28;20277;-78
2022/03/06 00:50:45;;;;;;;63.90;28.27;;;;;-0.60;101682.00;;;;10332006;28;20199;-78
2022/03/06 00:55:47;;;;;;;60.17;28.90;;;;;-0.70;101687.00;;;;10301859;28;20250;-78
2022/03/06 01:00:49;;;;;;;66.27;30.43;;;;;-0.70;101686.00;;;;10291743;28;20198;-78
2022/03/06 01:05:51;;;;;;;68.33;31.30;;;;;-0.80;101695.00;;;;10312077;28;20227;-78
2022/03/06 01:10:55;;;;;;;65.87;31.17;;;;;-0.80;101689.00;;;;10322926;28;20242;-78
2022/03/06 01:15:56;;;;;;;66.47;30.93;;;;;-0.90;101694.00;;;;10339066;28;20323;-78
2022/03/06 01:20:59;;;;;;;63.17;28.80;;;;;-0.90;101700.00;;;;10332371;28;20210;-78
2022/03/06 01:26:01;;;;;;;62.20;30.63;;;;;-1.00;101699.00;;;;10314625;28;20682;-78
2022/03/06 01:31:03;;;;;;;68.93;29.97;;;;;-1.00;101706.00;;;;10298093;28;20200;-78
2022/03/06 01:36:05;;;;;;;64.37;30.33;;;;;-1.00;101708.00;;;;10337892;28;20203;-78
2022/03/06 01:41:07;;;;;;;62.80;28.17;;;;;-1.20;101715.00;;;;10339019;28;20215;-78
2022/03/06 01:46:09;;;;;;;62.77;29.27;;;;;-1.30;101702.00;;;;10299821;28;20650;-78
2022/03/06 01:51:11;;;;;;;66.43;31.17;;;;;-1.30;101708.00;;;;10330226;28;20770;-78
2022/03/06 01:56:13;;;;;;;61.67;29.47;;;;;-1.40;101710.00;;;;10301952;28;20203;-78
2022/03/06 02:01:16;;;;;;;67.50;29.50;;;;;-1.50;101709.00;;;;10284378;28;20655;-78
2022/03/06 02:06:19;;;;;;;62.00;28.97;;;;;-1.50;101716.00;;;;10284078;28;20267;-78
2022/03/06 02:11:22;;;;;;;61.90;28.97;;;;;-1.60;101721.00;;;;10283238;28;20323;-78
2022/03/06 02:16:24;;;;;;;70.17;29.77;;;;;-1.60;101724.00;;;;10299163;28;20287;-78
2022/03/06 02:21:26;;;;;;;65.13;29.90;;;;;-1.60;101719.00;;;;10300077;28;20669;-79
2022/03/06 02:26:29;;;;;;;66.50;31.70;;;;;-1.70;101715.00;;;;10287624;28;20242;-79
2022/03/06 02:31:32;;;;;;;67.43;31.33;;;;;-1.70;101726.00;;;;10299339;28;20192;-79
2022/03/06 02:36:36;;;;;;;69.77;31.57;;;;;-1.80;101724.00;;;;10325844;28;20204;-78
2022/03/06 02:41:38;;;;;;;62.87;29.20;;;;;-1.80;101730.00;;;;10299982;28;20239;-78
2022/03/06 02:46:40;;;;;;;72.40;30.87;;;;;-1.80;101723.00;;;;10313563;28;20223;-78
2022/03/06 02:51:43;;;;;;;67.33;30.57;;;;;-1.80;101727.00;;;;10297079;28;20246;-78
2022/03/06 02:56:46;;;;;;;75.37;32.90;;;;;-1.80;101724.00;;;;10330304;28;20210;-78
2022/03/06 03:01:48;;;;;;;68.77;31.57;;;;;-1.90;101738.00;;;;10298481;28;20242;-78
2022/03/06 03:06:53;;;;;;;65.33;30.33;;;;;-1.90;101730.00;;;;10313589;28;20282;-78
2022/03/06 03:11:55;;;;;;;67.43;31.47;;;;;-2.00;101737.00;;;;10298315;28;20196;-79
2022/03/06 03:16:58;;;;;;;67.87;30.97;;;;;-2.00;101731.00;;;;10313030;28;20268;-79
2022/03/06 03:22:00;;;;;;;67.83;29.30;;;;;-2.00;101743.00;;;;10313054;28;20200;-78
2022/03/06 03:27:03;;;;;;;66.00;29.80;;;;;-2.10;101729.00;;;;10296243;28;20246;-77
2022/03/06 03:32:05;;;;;;;71.93;31.33;;;;;-2.10;101731.00;;;;10296011;28;20227;-78
2022/03/06 03:37:07;;;;;;;66.77;29.93;;;;;-2.10;101732.00;;;;10327527;28;20235;-78
2022/03/06 03:42:09;;;;;;;61.23;28.87;;;;;-2.10;101735.00;;;;10337245;28;20622;-78
2022/03/06 03:47:11;;;;;;;57.73;26.30;;;;;-2.20;101751.00;;;;10331662;28;20216;-78
2022/03/06 03:52:13;;;;;;;58.67;27.37;;;;;-2.20;101757.00;;;;10279614;28;20295;-78
2022/03/06 03:57:15;;;;;;;62.20;27.40;;;;;-2.20;101761.00;;;;10280837;28;20242;-79
2022/03/06 04:02:17;;;;;;;60.30;28.37;;;;;-2.20;101760.00;;;;10295946;28;20227;-78
2022/03/06 04:07:20;;;;;;;67.43;28.37;;;;;-2.20;101764.00;;;;10317563;28;20220;-79
2022/03/06 04:12:21;;;;;;;57.10;27.10;;;;;-2.20;101757.00;;;;10311756;28;20423;-78
2022/03/06 04:17:23;;;;;;;59.20;27.70;;;;;-2.20;101770.00;;;;10311243;28;20250;-79
2022/03/06 04:22:26;;;;;;;63.40;28.47;;;;;-2.20;101777.00;;;;10294031;28;20207;-78
2022/03/06 04:27:28;;;;;;;57.00;26.90;;;;;-2.30;101784.00;;;;10278663;28;20261;-78
2022/03/06 04:32:30;;;;;;;55.47;26.97;;;;;-2.30;101784.00;;;;10294514;28;20200;-78
2022/03/06 04:37:33;;;;;;;64.00;27.57;;;;;-2.30;101807.00;;;;10327715;28;20322;-78
2022/03/06 04:42:35;;;;;;;56.70;28.17;;;;;-2.30;101805.00;;;;10336119;28;20199;-78
2022/03/06 04:47:37;;;;;;;52.43;27.63;;;;;-2.40;101822.00;;;;10303132;28;20223;-78
2022/03/06 04:52:38;;;;;;;57.03;27.10;;;;;-2.40;101821.00;;;;10319006;28;20204;-78
2022/03/06 04:57:41;;;;;;;64.87;28.47;;;;;-2.30;101824.00;;;;10303960;28;20259;-78
2022/03/06 05:02:43;;;;;;;59.37;26.30;;;;;-2.30;101839.00;;;;10303540;28;20613;-78
2022/03/06 05:07:45;;;;;;;53.43;27.23;;;;;-2.40;101834.00;;;;10317452;28;20220;-78
2022/03/06 05:12:47;;;;;;;53.83;26.60;;;;;-2.40;101841.00;;;;10269615;28;20295;-78
2022/03/06 05:17:49;;;;;;;50.87;24.27;;;;;-2.50;101839.00;;;;10285803;28;20208;-79
2022/03/06 05:22:51;;;;;;;51.10;25.27;;;;;-2.50;101841.00;;;;10286626;28;20806;-77
2022/03/06 05:27:53;;;;;;;55.90;25.40;;;;;-2.50;101857.00;;;;10301579;28;20270;-78
2022/03/06 05:32:55;;;;;;;52.50;23.33;;;;;-2.60;101842.00;;;;10278091;28;20236;-77
2022/03/06 05:37:57;;;;;;;48.37;22.97;;;;;-2.70;101856.00;;;;10352111;28;20259;-78
2022/03/06 05:43:00;;;;;;;52.23;23.87;;;;;-2.70;101870.00;;;;10308391;28;20203;-79
2022/03/06 05:48:02;;;;;;;49.07;23.67;;;;;-2.80;101876.00;;;;10303066;28;20247;-78
2022/03/06 05:53:03;;;;;;;59.00;25.33;;;;;-2.70;101873.00;;;;10284546;28;20300;-78
2022/03/06 05:58:05;;;;;;;48.00;23.87;;;;;-2.60;101888.00;;;;10284820;28;20235;-79
2022/03/06 06:03:07;;;;;;;53.73;24.27;;;;;-2.60;101891.00;;;;10284487;28;20204;-79
2022/03/06 06:08:09;;;;;;;44.23;22.40;;;;;-2.50;101891.00;;;;10344842;28;20774;-78
2022/03/06 06:13:14;;;;;;;46.03;23.00;;;;;-2.40;101901.00;;;;10315879;28;20745;-79
2022/03/06 06:18:18;;;;;;;50.60;22.77;;;;;-2.40;101913.00;;;;10315817;28;20204;-78
2022/03/06 06:23:20;;;;;;;50.57;24.37;;;;;-2.40;101916.00;;;;10316282;28;20204;-79
2022/03/06 06:28:22;;;;;;;49.20;24.70;;;;;-2.30;101920.00;;;;10284142;28;20250;-79
2022/03/06 06:33:24;;;;;;;49.33;23.73;;;;;-2.20;101929.00;;;;10319453;28;20210;-79
2022/03/06 06:38:26;;;;;;;55.43;26.80;;;;;-2.00;101942.00;;;;10299793;28;20227;-78
2022/03/06 06:43:29;;;;;;;49.73;24.37;;;;;-1.90;101941.00;;;;10283727;28;20196;-78
2022/03/06 06:48:31;;;;;;;46.07;23.33;;;;;-1.70;101940.00;;;;10299378;28;20311;-78
2022/03/06 06:53:34;;;;;;;45.50;22.87;;;;;-1.60;101954.00;;;;10316175;28;20204;-79
2022/03/06 06:58:36;;;;;;;54.70;25.23;;;;;-1.40;101961.00;;;;10300518;28;20196;-78
2022/03/06 07:03:37;;;;;;;58.87;26.97;;;;;-1.20;101963.00;;;;10266822;28;20857;-79
2022/03/06 07:08:39;;;;;;;44.37;23.83;;;;;-0.90;101971.00;;;;10304857;28;20268;-80
2022/03/06 07:13:42;;;;;;;47.43;24.57;;;;;-0.60;101969.00;;;;10276156;28;20243;-79
2022/03/06 07:18:43;;;;;;;45.77;23.23;;;;;-0.40;101974.00;;;;10293375;28;20288;-78
2022/03/06 07:23:45;;;;;;;48.97;23.97;;;;;-0.10;101975.00;;;;10283360;28;20211;-78
2022/03/06 07:28:47;;;;;;;43.17;23.67;;;;;0.30;101989.00;;;;10296179;28;20259;-78
2022/03/06 07:33:49;;;;;;;42.50;22.80;;;;;0.60;101986.00;;;;10280770;28;20687;-79
2022/03/06 07:38:52;;;;;;;41.50;23.47;;;;;1.00;101981.00;;;;10296460;28;20242;-78
2022/03/06 07:43:54;;;;;;;38.87;21.93;;;;;1.30;101992.00;;;;10296574;28;20200;-79
2022/03/06 07:48:56;;;;;;;40.23;21.60;;;;;1.60;102011.00;;;;10277469;28;20220;-78
2022/03/06 07:53:58;;;;;;;38.77;21.87;;;;;1.90;102007.00;;;;10294084;28;20270;-78
2022/03/06 07:59:00;;;;;;;33.77;20.50;;;;;2.10;102026.00;;;;10279039;28;20219;-79
2022/03/06 08:04:03;;;;;;;34.67;20.57;;;;;2.20;102025.00;;;;10279221;28;20210;-78
2022/03/06 08:09:05;;;;;;;37.37;21.53;;;;;2.50;102030.00;;;;10261242;28;20204;-78
2022/03/06 08:14:07;;;;;;;36.43;21.23;;;;;2.80;102031.00;;;;10293618;28;20208;-78
2022/03/06 08:19:09;;;;;;;34.40;21.03;;;;;3.10;102036.00;;;;10278054;28;20208;-78
2022/03/06 08:24:11;;;;;;;33.10;19.73;;;;;3.40;102032.00;;;;10294255;28;20286;-78
2022/03/06 08:29:13;;;;;;;29.10;18.93;;;;;3.70;102037.00;;;;10237846;28;20212;-78
2022/03/06 08:34:14;;;;;;;30.03;18.67;;;;;4.00;102037.00;;;;10273821;28;20287;-78
2022/03/06 08:39:16;;;;;;;33.43;19.87;;;;;4.30;102048.00;;;;10293942;28;20238;-78
2022/03/06 08:44:20;;;;;;;31.93;19.70;;;;;4.50;102057.00;;;;10294076;28;20184;-79
2022/03/06 08:49:22;;;;;;;29.13;18.57;;;;;4.70;102058.00;;;;10309617;28;20270;-76
2022/03/06 08:54:24;;;;;;;27.43;18.07;;;;;5.00;102057.00;;;;10292177;28;20196;-78
2022/03/06 08:59:26;;;;;;;29.43;18.97;;;;;5.20;102053.00;;;;10293117;28;20211;-77
2022/03/06 09:04:31;;;;;;;29.50;20.33;;;;;5.40;102070.00;;;;10288469;28;20209;-78
2022/03/06 09:09:34;;;;;;;30.17;19.00;;;;;5.70;102073.00;;;;10350670;28;20216;-77
2022/03/06 09:14:37;;;;;;;32.57;19.90;;;;;6.00;102068.00;;;;10300541;28;20302;-78
2022/03/06 09:19:40;;;;;;;29.47;18.43;;;;;6.30;102071.00;;;;10242230;28;20209;-78
2022/03/06 09:24:42;;;;;;;26.07;17.70;;;;;6.70;102078.00;;;;10289428;28;20236;-80
2022/03/06 09:29:44;;;;;;;29.47;19.27;;;;;6.70;102072.00;;;;10277494;28;20207;-75
2022/03/06 09:34:48;;;;;;;28.53;17.77;;;;;7.00;102064.00;;;;10283974;28;20216;-77
2022/03/06 09:39:51;;;;;;;30.90;19.43;;;;;7.20;102066.00;;;;10283557;28;20243;-77
2022/03/06 09:44:53;;;;;;;27.33;18.13;;;;;7.60;102072.00;;;;10282567;28;20714;-78
2022/03/06 09:49:54;;;;;;;27.30;18.27;;;;;7.90;102069.00;;;;10296648;28;20533;-77
2022/03/06 09:54:57;;;;;;;24.83;18.67;;;;;8.30;102070.00;;;;10277250;28;20666;-77
2022/03/06 09:59:58;;;;;;;25.67;18.33;;;;;8.50;102069.00;;;;10297907;28;20442;-77
2022/03/06 10:05:00;;;;;;;28.03;18.23;;;;;8.60;102063.00;;;;10283088;28;20255;-78
2022/03/06 10:10:02;;;;;;;24.93;17.40;;;;;8.80;102070.00;;;;10316318;28;20211;-78
2022/03/06 10:15:06;;;;;;;24.37;19.03;;;;;9.10;102067.00;;;;10298565;28;20702;-78
2022/03/06 10:20:10;;;;;;;26.13;18.30;;;;;9.10;102065.00;;;;10296833;28;20200;-78
2022/03/06 10:25:16;;;;;;;24.57;18.50;;;;;9.30;102068.00;;;;10293565;28;20243;-77
2022/03/06 10:30:31;;;;;;;25.90;18.40;;;;;9.60;102078.00;;;;10300802;28;20215;-78
2022/03/06 10:35:33;;;;;;;27.17;18.97;;;;;9.90;102070.00;;;;10300641;28;20212;-78
2022/03/06 10:40:38;;;;;;;24.13;17.27;;;;;10.10;102069.00;;;;10293609;28;20934;-78
2022/03/06 10:45:40;;;;;;;22.93;17.57;;;;;10.40;102073.00;;;;10305418;28;20231;-78
2022/03/06 10:50:42;;;;;;;26.50;19.23;;;;;10.50;102076.00;;;;10256543;28;20204;-78
2022/03/06 10:55:44;;;;;;;23.57;18.80;;;;;10.40;102072.00;;;;10306583;28;20203;-79
2022/03/06 11:00:47;;;;;;;23.20;17.83;;;;;10.50;102066.00;;;;10311067;28;20207;-78
2022/03/06 11:05:51;;;;;;;25.03;18.43;;;;;10.90;102064.00;;;;10307513;28;20223;-78
2022/03/06 11:10:53;;;;;;;24.87;18.23;;;;;11.30;102067.00;;;;10295785;28;20227;-78
2022/03/06 11:15:57;;;;;;;21.83;16.50;;;;;11.30;102064.00;;;;10255498;28;20204;-78
2022/03/06 11:21:01;;;;;;;23.17;17.13;;;;;11.70;102061.00;;;;10269092;28;20198;-78
2022/03/06 11:26:09;;;;;;;23.07;16.97;;;;;11.80;102062.00;;;;10327417;28;20220;-78
2022/03/06 11:31:11;;;;;;;24.00;16.87;;;;;11.80;102053.00;;;;10299659;28;20247;-78
2022/03/06 11:36:25;;;;;;;20.50;15.60;;;;;12.00;102052.00;;;;10294699;28;20204;-79
2022/03/06 11:41:27;;;;;;;20.93;16.10;;;;;12.00;102053.00;;;;10294286;28;20670;-78
2022/03/06 11:46:29;;;;;;;18.13;15.47;;;;;11.90;102048.00;;;;10295777;28;20667;-77
2022/03/06 11:51:33;;;;;;;19.63;15.10;;;;;11.50;102043.00;;;;10294373;28;20212;-78
2022/03/06 11:56:35;;;;;;;18.73;14.70;;;;;11.50;102037.00;;;;10294418;28;20231;-78
2022/03/06 12:01:43;;;;;;;16.93;14.17;;;;;11.90;102024.00;;;;10292707;28;20204;-78
2022/03/06 12:06:49;;;;;;;19.33;13.70;;;;;12.10;102021.00;;;;10308528;28;20307;-78
2022/03/06 12:11:54;;;;;;;16.97;12.87;;;;;12.50;102026.00;;;;10292923;28;20206;-78
2022/03/06 12:17:02;;;;;;;15.83;12.87;;;;;12.40;102020.00;;;;10324504;28;20248;-78
2022/03/06 12:22:12;;;;;;;16.77;13.50;;;;;12.70;102023.00;;;;10283192;28;20212;-79
2022/03/06 12:27:19;;;;;;;16.20;13.10;;;;;12.50;102015.00;;;;10308392;28;20319;-78
2022/03/06 12:32:24;;;;;;;16.20;12.93;;;;;12.50;102004.00;;;;10284606;28;20215;-78
2022/03/06 12:37:32;;;;;;;18.17;14.73;;;;;12.10;102009.00;;;;10259824;28;20232;-79
2022/03/06 12:42:35;;;;;;;16.10;13.63;;;;;12.50;102012.00;;;;10294740;28;20808;-78
2022/03/06 12:47:38;;;;;;;16.27;14.07;;;;;12.60;101997.00;;;;10302852;28;20278;-78
2022/03/06 12:52:43;;;;;;;16.73;12.93;;;;;12.60;101997.00;;;;10289644;28;20300;-79
2022/03/06 12:57:53;;;;;;;15.27;13.43;;;;;12.90;101984.00;;;;10275124;28;20212;-77
2022/03/06 13:03:05;;;;;;;16.43;12.43;;;;;12.80;102002.00;;;;10308044;28;20215;-79
2022/03/06 13:08:07;;;;;;;17.53;13.23;;;;;12.80;101989.00;;;;10337001;28;20220;-79
2022/03/06 13:13:09;;;;;;;17.70;13.53;;;;;13.10;101984.00;;;;10314926;28;20207;-79
2022/03/06 13:18:12;;;;;;;15.97;13.07;;;;;13.40;101974.00;;;;10266918;28;20679;-77
2022/03/06 13:23:20;;;;;;;14.03;12.47;;;;;13.80;101977.00;;;;10315184;28;20766;-78
2022/03/06 13:28:22;;;;;;;18.53;13.50;;;;;13.60;101986.00;;;;10311584;28;20341;-77
2022/03/06 13:33:24;;;;;;;20.03;15.03;;;;;13.90;101980.00;;;;10299512;28;20250;-77
2022/03/06 13:38:28;;;;;;;15.83;13.73;;;;;13.50;101983.00;;;;10274699;28;20338;-78
2022/03/06 13:43:36;;;;;;;17.83;14.77;;;;;14.20;101975.00;;;;10297806;28;20208;-77
2022/03/06 13:48:38;;;;;;;19.00;15.67;;;;;13.90;101965.00;;;;10303086;28;20725;-76
2022/03/06 13:53:58;;;;;;;18.43;15.00;;;;;13.30;101973.00;;;;10283149;28;20219;-78
2022/03/06 13:59:05;;;;;;;18.13;13.77;;;;;11.50;101972.00;;;;10316379;28;20227;-77
2022/03/06 14:04:09;;;;;;;16.03;12.17;;;;;10.70;101967.00;;;;10315225;28;20254;-78
2022/03/06 14:09:23;;;;;;;17.93;13.73;;;;;10.80;101977.00;;;;10283299;28;20251;-78
2022/03/06 14:14:34;;;;;;;15.17;12.47;;;;;12.10;101976.00;;;;10288447;28;20231;-78
2022/03/06 14:19:36;;;;;;;18.37;13.37;;;;;14.60;101916.00;;;;10291407;28;20208;-78
2022/03/06 14:24:38;;;;;;;16.97;12.50;;;;;14.30;101966.00;;;;10314368;28;20274;-78
2022/03/06 14:29:41;;;;;;;15.17;12.03;;;;;15.00;101901.00;;;;10281636;28;20232;-78
2022/03/06 14:34:43;;;;;;;18.77;13.73;;;;;16.30;101898.00;;;;10304755;28;20200;-78
2022/03/06 14:39:45;;;;;;;16.67;12.90;;;;;13.30;101923.00;;;;10297662;28;20263;-77
2022/03/06 14:44:47;;;;;;;16.50;13.03;;;;;15.40;101900.00;;;;10297273;28;20208;-78
2022/03/06 14:49:49;;;;;;;15.43;12.53;;;;;12.80;101985.00;;;;10297883;28;20223;-78
2022/03/06 14:54:51;;;;;;;19.77;13.60;;;;;10.60;101961.00;;;;10311962;28;20216;-78
2022/03/06 14:59:53;;;;;;;18.13;12.73;;;;;14.40;101865.00;;;;10273087;28;20704;-77
2022/03/06 15:04:55;;;;;;;17.63;12.70;;;;;15.30;101886.00;;;;10269910;28;20226;-78
2022/03/06 15:09:56;;;;;;;15.83;12.30;;;;;15.20;101895.00;;;;10280784;28;20227;-77
2022/03/06 15:14:58;;;;;;;16.30;12.93;;;;;13.00;101935.00;;;;10280346;28;20226;-77
2022/03/06 15:20:00;;;;;;;16.07;12.57;;;;;10.80;101960.00;;;;10328004;28;20193;-78
2022/03/06 15:25:04;;;;;;;18.30;13.83;;;;;13.30;101878.00;;;;10309860;28;20212;-78
2022/03/06 15:30:06;;;;;;;14.50;12.40;;;;;12.50;101934.00;;;;10308618;28;20818;-77
2022/03/06 15:35:08;;;;;;;16.30;11.87;;;;;9.90;101961.00;;;;10287084;28;20711;-77
2022/03/06 15:40:12;;;;;;;18.13;13.67;;;;;9.80;101949.00;;;;10309955;28;20227;-78
2022/03/06 15:45:14;;;;;;;16.73;13.27;;;;;9.70;101943.00;;;;10291576;28;20215;-78
2022/03/06 15:50:17;;;;;;;15.13;12.60;;;;;8.90;101941.00;;;;10300135;28;20255;-78
2022/03/06 15:55:19;;;;;;;18.70;12.37;;;;;8.70;101937.00;;;;10275625;28;20235;-78
2022/03/06 16:00:21;;;;;;;19.50;13.53;;;;;8.50;101934.00;;;;10292985;28;20200;-78
2022/03/06 16:05:26;;;;;;;16.87;12.70;;;;;8.40;101929.00;;;;10343126;28;20250;-77
2022/03/06 16:10:32;;;;;;;14.67;11.83;;;;;8.40;101938.00;;;;10337247;28;20199;-78
2022/03/06 16:15:34;;;;;;;15.73;11.63;;;;;8.00;101935.00;;;;10336533;28;20199;-78
2022/03/06 16:20:40;;;;;;;15.87;11.97;;;;;7.60;101949.00;;;;10309947;28;20239;-78
2022/03/06 16:25:42;;;;;;;15.97;12.00;;;;;7.20;101940.00;;;;10308292;28;20235;-77
2022/03/06 16:30:45;;;;;;;13.77;11.23;;;;;6.90;101940.00;;;;10292937;28;20275;-78
2022/03/06 16:35:49;;;;;;;15.70;10.67;;;;;6.70;101934.00;;;;10284400;28;20207;-78
2022/03/06 16:40:56;;;;;;;15.70;12.13;;;;;6.50;101938.00;;;;10275939;28;20252;-78
2022/03/06 16:45:59;;;;;;;14.63;11.17;;;;;6.40;101938.00;;;;10326676;28;20713;-78
2022/03/06 16:51:03;;;;;;;16.70;11.37;;;;;6.20;101948.00;;;;10307469;28;20192;-79
2022/03/06 16:56:05;;;;;;;18.43;12.83;;;;;6.00;101949.00;;;;10268694;28;20715;-78
2022/03/06 17:01:08;;;;;;;19.07;11.93;;;;;5.90;101956.00;;;;10292070;28;20205;-77
2022/03/06 17:06:10;;;;;;;14.30;10.90;;;;;5.70;101954.00;;;;10283156;28;20216;-77
2022/03/06 17:11:13;;;;;;;14.50;11.97;;;;;5.50;101951.00;;;;10306514;28;20200;-77
2022/03/06 17:16:15;;;;;;;12.93;10.20;;;;;5.30;101960.00;;;;10274144;28;20226;-78
2022/03/06 17:21:18;;;;;;;14.53;11.40;;;;;5.10;101968.00;;;;10290090;28;20228;-78
2022/03/06 17:26:20;;;;;;;14.87;11.70;;;;;5.00;101963.00;;;;10288970;28;20287;-77
2022/03/06 17:31:22;;;;;;;15.17;10.50;;;;;4.80;101967.00;;;;10290437;28;20208;-78
2022/03/06 17:36:24;;;;;;;17.33;11.40;;;;;4.60;101973.00;;;;10287720;28;20713;-78
2022/03/06 17:41:26;;;;;;;15.50;12.13;;;;;4.50;101978.00;;;;10275263;28;20219;-78
2022/03/06 17:46:28;;;;;;;17.53;11.57;;;;;4.30;101984.00;;;;10291199;28;20226;-78
2022/03/06 17:51:30;;;;;;;18.83;12.23;;;;;4.20;101997.00;;;;10293921;28;20213;-78
2022/03/06 17:56:33;;;;;;;17.00;12.17;;;;;4.00;101999.00;;;;10314757;28;20208;-79
2022/03/06 18:01:35;;;;;;;15.47;11.27;;;;;3.80;102011.00;;;;10298988;28;20204;-78
2022/03/06 18:06:40;;;;;;;17.13;11.40;;;;;3.70;102011.00;;;;10284707;28;20320;-78
2022/03/06 18:11:42;;;;;;;14.00;10.73;;;;;3.60;102011.00;;;;10282243;28;20212;-78
2022/03/06 18:16:45;;;;;;;16.37;11.93;;;;;3.60;102017.00;;;;10281584;28;20199;-78
2022/03/06 18:21:48;;;;;;;15.13;11.03;;;;;3.50;102018.00;;;;10320712;28;20218;-78
2022/03/06 18:26:51;;;;;;;13.87;10.40;;;;;3.40;102016.00;;;;10295632;28;20236;-77
2022/03/06 18:31:53;;;;;;;17.70;11.10;;;;;3.20;102020.00;;;;10295206;28;20216;-77
2022/03/06 18:36:57;;;;;;;14.77;10.97;;;;;3.10;102029.00;;;;10283437;28;20207;-77
2022/03/06 18:41:59;;;;;;;16.17;10.50;;;;;3.00;102028.00;;;;10295219;28;20200;-77
2022/03/06 18:47:01;;;;;;;17.17;11.47;;;;;2.90;102044.00;;;;10305423;28;20220;-77
2022/03/06 18:52:03;;;;;;;14.10;10.43;;;;;2.80;102042.00;;;;10297550;28;20208;-77
2022/03/06 18:57:05;;;;;;;13.27;8.80;;;;;2.80;102047.00;;;;10313134;28;20200;-77
2022/03/06 19:02:07;;;;;;;12.43;9.50;;;;;2.70;102051.00;;;;10278996;28;20201;-77
2022/03/06 19:07:12;;;;;;;13.80;10.13;;;;;2.60;102044.00;;;;10284241;28;20255;-77
2022/03/06 19:12:16;;;;;;;14.50;10.57;;;;;2.50;102053.00;;;;10295562;28;20223;-77
2022/03/06 19:17:19;;;;;;;14.47;10.40;;;;;2.50;102052.00;;;;10310828;28;20230;-77
2022/03/06 19:22:21;;;;;;;15.50;10.63;;;;;2.40;102071.00;;;;10294760;28;20278;-77
2022/03/06 19:27:23;;;;;;;11.93;9.60;;;;;2.30;102070.00;;;;10278379;28;20224;-77
2022/03/06 19:32:26;;;;;;;16.17;10.43;;;;;2.20;102076.00;;;;10294627;28;20192;-77
2022/03/06 19:37:30;;;;;;;14.30;9.57;;;;;2.20;102087.00;;;;10311348;28;20232;-77
2022/03/06 19:42:32;;;;;;;15.00;9.57;;;;;2.20;102082.00;;;;10294264;28;20196;-77
2022/03/06 19:47:34;;;;;;;14.80;10.73;;;;;2.10;102079.00;;;;10265916;28;20242;-77
2022/03/06 19:52:36;;;;;;;13.70;9.73;;;;;2.00;102082.00;;;;10295256;28;20428;-77
2022/03/06 19:57:39;;;;;;;15.13;10.07;;;;;2.10;102073.00;;;;10310911;28;20636;-77
2022/03/06 20:02:41;;;;;;;16.13;10.60;;;;;2.10;102081.00;;;;10294802;28;20204;-77
2022/03/06 20:07:44;;;;;;;14.67;11.13;;;;;2.10;102084.00;;;;10294202;28;20216;-77
2022/03/06 20:12:47;;;;;;;16.80;11.53;;;;;2.00;102084.00;;;;10310492;28;20275;-76
2022/03/06 20:17:49;;;;;;;15.70;11.10;;;;;1.90;102082.00;;;;10293509;28;20230;-76
2022/03/06 20:22:51;;;;;;;15.47;10.97;;;;;1.80;102089.00;;;;10293775;28;20951;-76
2022/03/06 20:27:53;;;;;;;15.37;11.13;;;;;1.70;102096.00;;;;10293331;28;20743;-76
2022/03/06 20:33:15;;;;;;;13.00;10.07;;;;;1.50;102092.00;;;;10275672;28;20216;-76
2022/03/06 20:38:17;;;;;;;17.17;11.03;;;;;1.40;102102.00;;;;10292259;28;20239;-76
2022/03/06 20:43:20;;;;;;;19.07;11.80;;;;;1.20;102105.00;;;;10328326;28;20215;-76
2022/03/06 20:48:22;;;;;;;20.57;13.20;;;;;1.10;102107.00;;;;10295338;28;20219;-76
2022/03/06 20:53:25;;;;;;;20.60;13.00;;;;;1.10;102108.00;;;;10293314;28;20196;-76
2022/03/06 20:58:27;;;;;;;19.20;12.87;;;;;1.00;102112.00;;;;10293435;28;20196;-76
2022/03/06 21:03:29;;;;;;;16.30;11.00;;;;;1.00;102103.00;;;;10292869;28;20814;-76
2022/03/06 21:08:31;;;;;;;19.57;12.03;;;;;1.00;102112.00;;;;10292720;28;20224;-76
2022/03/06 21:13:34;;;;;;;17.23;11.33;;;;;0.90;102110.00;;;;10324277;28;20283;-76
2022/03/06 21:18:37;;;;;;;19.67;10.23;;;;;0.80;102117.00;;;;10292172;28;20204;-76
2022/03/06 21:23:39;;;;;;;14.40;9.67;;;;;0.60;102117.00;;;;10294182;28;20197;-76
2022/03/06 21:28:43;;;;;;;14.07;10.37;;;;;0.50;102126.00;;;;10330873;28;20224;-76
2022/03/06 21:33:47;;;;;;;12.93;10.00;;;;;0.50;102122.00;;;;10320413;28;20744;-76
2022/03/06 21:38:49;;;;;;;16.53;10.90;;;;;0.40;102098.00;;;;10355963;28;20289;-76
2022/03/06 21:43:51;;;;;;;21.20;10.23;;;;;0.40;102107.00;;;;10364493;28;20204;-76
2022/03/06 21:48:55;;;;;;;14.80;10.60;;;;;0.40;102114.00;;;;10312865;28;20314;-76
2022/03/06 21:53:57;;;;;;;15.40;10.27;;;;;0.40;102113.00;;;;10298875;28;20211;-76
2022/03/06 21:59:10;;;;;;;18.17;10.57;;;;;0.30;102107.00;;;;10313441;28;20205;-76
2022/03/06 22:04:13;;;;;;;14.10;10.07;;;;;0.30;102113.00;;;;10303562;28;20248;-76
2022/03/06 22:09:16;;;;;;;14.47;9.13;;;;;0.30;102119.00;;;;10337152;28;20231;-76
2022/03/06 22:14:18;;;;;;;13.80;9.47;;;;;0.20;102115.00;;;;10337953;28;20289;-76
2022/03/06 22:19:20;;;;;;;12.53;8.90;;;;;0.20;102102.00;;;;10336960;28;20287;-77
2022/03/06 22:24:24;;;;;;;14.27;9.93;;;;;0.10;102101.00;;;;10336015;28;20203;-76
2022/03/06 22:29:27;;;;;;;14.10;9.33;;;;;0.00;102107.00;;;;10336021;28;20247;-76
2022/03/06 22:34:29;;;;;;;14.20;9.53;;;;;0.00;102108.00;;;;10299568;28;20207;-77
2022/03/06 22:39:31;;;;;;;10.90;9.00;;;;;-0.10;102106.00;;;;10279549;28;20247;-76
2022/03/06 22:44:33;;;;;;;11.30;8.93;;;;;-0.10;102114.00;;;;10278560;28;20201;-76
2022/03/06 22:49:35;;;;;;;13.70;9.37;;;;;-0.30;102125.00;;;;10295261;28;20216;-76
2022/03/06 22:54:37;;;;;;;14.37;9.73;;;;;-0.40;102128.00;;;;10296442;28;20200;-76
2022/03/06 22:59:40;;;;;;;13.77;9.03;;;;;-0.50;102121.00;;;;10311410;28;20196;-76
2022/03/06 23:10:03;;;;;;;13.83;9.63;;;;;-0.60;102114.00;;;;10312756;28;20234;-76
2022/03/06 23:15:05;;;;;;;12.53;8.70;;;;;-0.60;102113.00;;;;10310468;28;20340;-76
2022/03/06 23:20:08;;;;;;;13.67;9.03;;;;;-0.70;102127.00;;;;10310605;28;20667;-76
2022/03/06 23:25:11;;;;;;;13.83;8.97;;;;;-0.70;102114.00;;;;10294395;28;20206;-76
2022/03/06 23:30:14;;;;;;;14.50;9.40;;;;;-0.70;102104.00;;;;10294025;28;20228;-76
2022/03/06 23:35:16;;;;;;;15.87;8.77;;;;;-0.80;102115.00;;;;10294117;28;20528;-76
2022/03/06 23:40:18;;;;;;;15.87;8.90;;;;;-0.90;102116.00;;;;10293800;28;20241;-76
2022/03/06 23:45:20;;;;;;;11.63;8.43;;;;;-1.00;102111.00;;;;10293741;28;20227;-76
2022/03/06 23:50:24;;;;;;;16.20;9.30;;;;;-1.00;102112.00;;;;10292530;28;20220;-76
2022/03/06 23:55:28;;;;;;;11.97;8.63;;;;;-1.10;102111.00;;;;10294294;28;20201;-76
